SKRGSKSM

Guest
Details From SKRG - JOSE MARIA CORDOVA
To SKSM - SIMON BOLIVAR
Flight Number -
Tags generated
Created
Modified
Stats Distance 307 nm / 569 km
Max Altitude 33,700 ft / 10,272 m
Waypoints 5
Social Downloads 0
Likes 0
Share VATSIM

Download

Looking for another format? Having issues loading an existing format? Contact us
Advertisement - Login to hide

Notes

Basic altitude profile: - Ascent Rate: 2500ft/min - Ascent Speed: 250kts - Cruise Altitude: 35000ft - Cruise Speed: 420kts - Descent Rate: 1500ft/min - Descent Speed: 250kts Options: - Use NATs: yes - Use PACOTS: yes - Use low airways: yes - Use high airways: yes

Route

SKRG ROPIN W3 MGN W4 ISOTO SKSM

ID Type Via Altitude Latitude Longitude Leg Dist Tot Dist Heading (true) Name
O SKRG APT - 0 ft / 0 m 6.16453˚ -75.42312˚ - 0 nm - JOSE MARIA CORDOVA
ROPIN FIX - 33,700 ft / 10,272 m 7.68528˚ -75.00889˚ 94 nm 94 nm 15° / 15° -
MGN VOR W3 (AWY-LO) 23,500 ft / 7,163 m 9.28722˚ -74.84694˚ 96 nm 191 nm 6° / 6° MAGANGUE VOR-DME
ISOTO FIX W4 (AWY-LO) 15,100 ft / 4,602 m 9.92639˚ -74.61444˚ 40 nm 232 nm 20° / 20° -
O SKSM APT - 0 ft / 0 m 11.11965˚ -74.23065˚ 75 nm 307 nm 18° / 18° SIMON BOLIVAR

Altitude Profile

Advertisement - Login to hide

Weather


0- 5 10 15 20 25 30 35+ Temperature / ° C

Clouds and Precipitation
Forecast for 2017-12-13 00:00 UTC. Updated 7 minutes ago

Ground ~20,000 ft ~40,000 ft Winds

SKRG

Details ICAO SKRG (MDE)
Name JOSE MARIA CORDOVA
Region Colombia
Timezone America/Bogota (UTC-5.0)
Stats Elevation 6,955 ft / 2,120 m (AMSL)
Location 6.164532° -75.423119°
Runways 1
Magnetic Variation 6.630° W

METAR

SKRG 122300Z 10003KT 9999 SCT015TCU 17/15 A3026 RMK TCU/S/W

Decode

TAF

Not found

Departure Runways

ID Width Length Bearing (true) Bearing (mag) Surface Threshold Offset Overrun Length
18 148 ft / 45 m 11,547 ft / 3,520 m 179.62° 186.25° Asphalt 0 ft / 0 m 98 ft / 30 m
36 148 ft / 45 m 11,547 ft / 3,520 m 359.62° 6.25° Asphalt 0 ft / 0 m 98 ft / 30 m

SKSM

Details ICAO SKSM (SMR)
Name SIMON BOLIVAR
Region Colombia
Timezone Unknown (UTC+0.0)
Stats Elevation 22 ft / 7 m (AMSL)
Location 11.119649° -74.230646°
Runways 1
Magnetic Variation 8.100° W

METAR

SKSM 122300Z 01006KT 9999 FEW020 29/23 A2980

Decode

TAF

Not found

Destination Runways

ID Width Length Bearing (true) Bearing (mag) Surface Threshold Offset Overrun Length
01 98 ft / 30 m 5,618 ft / 1,712 m 358.67° 6.77° Asphalt 0 ft / 0 m 0 ft / 0 m
19 98 ft / 30 m 5,618 ft / 1,712 m 178.67° 186.77° Asphalt 0 ft / 0 m 0 ft / 0 m

Popular Alternatives